This is the latest recevied weather packets stored in our database for station/object KB1QVF. If no packets are shown the sender has not sent any weather packets the latest 10 day(s).
| Time | Temp. | Humidity | Pressure | Rain* | Wind** | Luminosity | Snow |
|---|---|---|---|---|---|---|---|
| 1777391262 | 16.67° C | 41% | 1023.2 hPa | 0 mm | - | 759 W/m² | - |
| 1777390959 | 16.67° C | 40% | 1023.5 hPa | 0 mm | - | 754 W/m² | - |
| 1777390654 | 17.78° C | 38% | 1023.4 hPa | 0 mm | - | 745 W/m² | - |
| 1777390352 | 17.78° C | 38% | 1023.8 hPa | 0 mm | - | 741 W/m² | - |
| 1777390047 | 17.22° C | 39% | 1023.6 hPa | 0 mm | - | 720 W/m² | - |
| 1777389745 | 16.67° C | 41% | 1023.9 hPa | 0 mm | - | 716 W/m² | - |
| 1777389441 | 16.67° C | 43% | 1023.9 hPa | 0 mm | - | 715 W/m² | - |
| 1777389139 | 17.78° C | 38% | 1023.8 hPa | 0 mm | - | 708 W/m² | - |
| 1777388836 | 17.22° C | 41% | 1023.8 hPa | 0 mm | - | 695 W/m² | - |
| 1777388533 | 16.67° C | 42% | 1023.9 hPa | 0 mm | - | 690 W/m² | - |
| 1777388228 | 16.67° C | 40% | 1023.9 hPa | 0 mm | - | 679 W/m² | - |
| 1777387924 | 16.11° C | 41% | 1024 hPa | 0 mm | - | 669 W/m² | - |
| 1777387620 | 15.56° C | 43% | 1024 hPa | 0 mm | - | 660 W/m² | - |
| 1777387317 | 16.11° C | 43% | 1024.1 hPa | 0 mm | - | 651 W/m² | - |
| 1777387011 | 15.56° C | 42% | 1024.1 hPa | 0 mm | - | 641 W/m² | - |
| 1777386708 | 16.11° C | 42% | 1024.2 hPa | 0 mm | - | 629 W/m² | - |
| 1777386405 | 15.56° C | 41% | 1024.2 hPa | 0 mm | - | 618 W/m² | - |
| 1777386102 | 15.56° C | 41% | 1024.3 hPa | 0 mm | - | 603 W/m² | - |
| 1777385799 | 15° C | 43% | 1024.2 hPa | 0 mm | - | 594 W/m² | - |
| 1777385496 | 15° C | 42% | 1024.1 hPa | 0 mm | - | 582 W/m² | - |
| 1777385193 | 14.44° C | 43% | 1024 hPa | 0 mm | - | 570 W/m² | - |
| 1777384889 | 15° C | 41% | 1024.3 hPa | 0 mm | - | 556 W/m² | - |
| 1777384587 | 15° C | 42% | 1024.3 hPa | 0 mm | - | 541 W/m² | - |
| 1777384286 | 15.56° C | 40% | 1024 hPa | 0 mm | - | 527 W/m² | - |
| 1777383981 | 15.56° C | 40% | 1024.2 hPa | 0 mm | - | 514 W/m² | - |
* Rain latest hour (hover to see other rain measurements)
** Current wind speed in m/s (hover to see current wind gust speed)